sensor_id;sensor_type;location;lat;lon;timestamp;pressure;altitude;pressure_sealevel;temperature;humidity
76331;BME280;65148;51.912;15.570;2022-12-07T00:05:10;101107.33;;;2.64;100.00
76331;BME280;65148;51.912;15.570;2022-12-07T00:20:31;101110.86;;;2.46;100.00
76331;BME280;65148;51.912;15.570;2022-12-07T00:35:33;101094.62;;;2.16;100.00
76331;BME280;65148;51.912;15.570;2022-12-07T00:50:34;101085.95;;;1.96;100.00
76331;BME280;65148;51.912;15.570;2022-12-07T01:05:35;101086.77;;;1.97;100.00
76331;BME280;65148;51.912;15.570;2022-12-07T01:21:04;101094.87;;;2.15;100.00
76331;BME280;65148;51.912;15.570;2022-12-07T01:36:15;101084.05;;;2.40;100.00
76331;BME280;65148;51.912;15.570;2022-12-07T01:51:16;101068.23;;;2.32;100.00
76331;BME280;65148;51.912;15.570;2022-12-07T02:06:38;101039.43;;;2.20;100.00
76331;BME280;65148;51.912;15.570;2022-12-07T02:36:59;101031.15;;;2.22;100.00
76331;BME280;65148;51.912;15.570;2022-12-07T02:52:16;101018.38;;;2.17;100.00
76331;BME280;65148;51.912;15.570;2022-12-07T03:07:30;101006.31;;;2.27;100.00
76331;BME280;65148;51.912;15.570;2022-12-07T03:22:35;101008.75;;;2.46;100.00
76331;BME280;65148;51.912;15.570;2022-12-07T03:53:20;100981.38;;;2.68;100.00
76331;BME280;65148;51.912;15.570;2022-12-07T04:08:21;100972.50;;;2.19;100.00
76331;BME280;65148;51.912;15.570;2022-12-07T04:23:37;100959.77;;;2.14;100.00
76331;BME280;65148;51.912;15.570;2022-12-07T04:38:38;100964.91;;;1.98;100.00
76331;BME280;65148;51.912;15.570;2022-12-07T04:53:39;100958.29;;;1.82;100.00
76331;BME280;65148;51.912;15.570;2022-12-07T05:08:43;100948.30;;;1.71;100.00
76331;BME280;65148;51.912;15.570;2022-12-07T05:24:04;100947.95;;;1.42;100.00
76331;BME280;65148;51.912;15.570;2022-12-07T05:39:07;100955.56;;;1.45;100.00
76331;BME280;65148;51.912;15.570;2022-12-07T05:54:09;100953.82;;;1.33;100.00
76331;BME280;65148;51.912;15.570;2022-12-07T06:09:11;100935.31;;;1.06;100.00
76331;BME280;65148;51.912;15.570;2022-12-07T06:24:31;100944.80;;;1.02;100.00
76331;BME280;65148;51.912;15.570;2022-12-07T06:39:33;100912.82;;;1.07;100.00
76331;BME280;65148;51.912;15.570;2022-12-07T06:54:37;100918.01;;;1.02;100.00
76331;BME280;65148;51.912;15.570;2022-12-07T07:09:38;100903.50;;;1.10;100.00
76331;BME280;65148;51.912;15.570;2022-12-07T07:24:56;100886.03;;;1.44;100.00
76331;BME280;65148;51.912;15.570;2022-12-07T07:39:58;100870.33;;;1.29;100.00
76331;BME280;65148;51.912;15.570;2022-12-07T07:54:59;100872.58;;;1.51;100.00
76331;BME280;65148;51.912;15.570;2022-12-07T08:10:00;100864.58;;;1.44;100.00
76331;BME280;65148;51.912;15.570;2022-12-07T08:25:23;100857.65;;;1.55;100.00
76331;BME280;65148;51.912;15.570;2022-12-07T08:40:24;100850.87;;;1.70;100.00
76331;BME280;65148;51.912;15.570;2022-12-07T08:55:27;100831.98;;;1.77;100.00
76331;BME280;65148;51.912;15.570;2022-12-07T09:10:29;100823.55;;;1.92;100.00
76331;BME280;65148;51.912;15.570;2022-12-07T09:25:50;100837.56;;;1.94;100.00
76331;BME280;65148;51.912;15.570;2022-12-07T09:40:52;100814.53;;;2.28;100.00
76331;BME280;65148;51.912;15.570;2022-12-07T09:55:55;100803.24;;;2.49;100.00
76331;BME280;65148;51.912;15.570;2022-12-07T10:10:57;100803.27;;;2.72;100.00
76331;BME280;65148;51.912;15.570;2022-12-07T10:41:30;100786.06;;;3.20;100.00
76331;BME280;65148;51.912;15.570;2022-12-07T10:56:41;100771.66;;;3.26;100.00
76331;BME280;65148;51.912;15.570;2022-12-07T11:12:13;100772.56;;;3.43;100.00
76331;BME280;65148;51.912;15.570;2022-12-07T11:58:12;100747.23;;;3.84;97.62
76331;BME280;65148;51.912;15.570;2022-12-07T12:13:16;100760.49;;;2.94;94.37
76331;BME280;65148;51.912;15.570;2022-12-07T12:28:27;100777.70;;;2.58;99.38
76331;BME280;65148;51.912;15.570;2022-12-07T12:43:49;100752.47;;;2.59;99.65
76331;BME280;65148;51.912;15.570;2022-12-07T13:29:38;100807.91;;;2.42;91.71
76331;BME280;65148;51.912;15.570;2022-12-07T13:44:40;100798.82;;;2.54;91.07
76331;BME280;65148;51.912;15.570;2022-12-07T13:59:42;100816.02;;;2.65;90.60
76331;BME280;65148;51.912;15.570;2022-12-07T14:15:21;100810.77;;;2.70;88.43
76331;BME280;65148;51.912;15.570;2022-12-07T14:31:11;100801.16;;;2.51;90.51
76331;BME280;65148;51.912;15.570;2022-12-07T14:46:13;100797.34;;;2.70;89.96
76331;BME280;65148;51.912;15.570;2022-12-07T15:01:14;100798.38;;;2.69;91.28
76331;BME280;65148;51.912;15.570;2022-12-07T15:16:29;100800.69;;;2.54;92.90
76331;BME280;65148;51.912;15.570;2022-12-07T15:31:31;100808.88;;;2.71;93.00
76331;BME280;65148;51.912;15.570;2022-12-07T15:46:34;100797.20;;;2.53;94.93
76331;BME280;65148;51.912;15.570;2022-12-07T16:01:35;100791.71;;;2.48;95.17
76331;BME280;65148;51.912;15.570;2022-12-07T16:16:56;100775.88;;;2.29;96.64
76331;BME280;65148;51.912;15.570;2022-12-07T16:31:57;100777.44;;;2.36;96.03
76331;BME280;65148;51.912;15.570;2022-12-07T16:46:58;100764.00;;;2.36;96.46
76331;BME280;65148;51.912;15.570;2022-12-07T17:02:01;100768.40;;;2.19;97.72
76331;BME280;65148;51.912;15.570;2022-12-07T17:17:22;100763.52;;;2.16;98.72
76331;BME280;65148;51.912;15.570;2022-12-07T17:32:23;100761.39;;;2.18;99.24
76331;BME280;65148;51.912;15.570;2022-12-07T17:47:25;100765.63;;;2.26;99.48
76331;BME280;65148;51.912;15.570;2022-12-07T18:02:26;100769.24;;;2.31;100.00
76331;BME280;65148;51.912;15.570;2022-12-07T18:17:48;100788.20;;;2.48;100.00
76331;BME280;65148;51.912;15.570;2022-12-07T18:32:53;100790.30;;;2.58;99.98
76331;BME280;65148;51.912;15.570;2022-12-07T18:47:54;100784.70;;;2.82;97.85
76331;BME280;65148;51.912;15.570;2022-12-07T19:02:55;100789.96;;;2.66;96.94
76331;BME280;65148;51.912;15.570;2022-12-07T19:18:14;100799.63;;;2.43;96.98
76331;BME280;65148;51.912;15.570;2022-12-07T19:33:15;100793.55;;;2.36;96.59
76331;BME280;65148;51.912;15.570;2022-12-07T19:48:16;100808.76;;;2.54;95.77
76331;BME280;65148;51.912;15.570;2022-12-07T20:03:17;100813.77;;;2.50;95.28
76331;BME280;65148;51.912;15.570;2022-12-07T20:18:40;100811.65;;;2.41;95.34
76331;BME280;65148;51.912;15.570;2022-12-07T20:33:42;100807.55;;;2.27;95.18
76331;BME280;65148;51.912;15.570;2022-12-07T20:48:46;100829.95;;;2.20;94.83
76331;BME280;65148;51.912;15.570;2022-12-07T21:03:47;100836.57;;;2.18;95.11
76331;BME280;65148;51.912;15.570;2022-12-07T21:19:07;100843.32;;;2.09;95.49
76331;BME280;65148;51.912;15.570;2022-12-07T21:34:08;100859.32;;;2.04;95.61
76331;BME280;65148;51.912;15.570;2022-12-07T21:49:12;100863.21;;;1.90;95.67
76331;BME280;65148;51.912;15.570;2022-12-07T22:04:15;100871.52;;;1.70;96.45
76331;BME280;65148;51.912;15.570;2022-12-07T22:19:33;100872.48;;;1.39;97.88
76331;BME280;65148;51.912;15.570;2022-12-07T22:34:34;100875.70;;;1.48;99.03
76331;BME280;65148;51.912;15.570;2022-12-07T22:49:36;100886.48;;;1.41;100.00
76331;BME280;65148;51.912;15.570;2022-12-07T23:04:37;100880.15;;;1.54;98.31
76331;BME280;65148;51.912;15.570;2022-12-07T23:20:01;100870.70;;;1.69;98.07
76331;BME280;65148;51.912;15.570;2022-12-07T23:35:02;100872.87;;;1.61;98.28
76331;BME280;65148;51.912;15.570;2022-12-07T23:50:04;100867.03;;;1.82;96.80
